createdAt,value
2018-12-27T00:00:49.827Z,2.85
2018-12-27T00:01:49.810Z,2.86
2018-12-27T00:02:54.862Z,2.85
2018-12-27T00:03:49.730Z,2.90
2018-12-27T00:04:49.690Z,2.87
2018-12-27T00:05:49.653Z,2.90
2018-12-27T00:06:49.618Z,2.90
2018-12-27T00:07:49.561Z,2.87
2018-12-27T00:08:49.542Z,2.92
2018-12-27T00:09:49.492Z,2.95
2018-12-27T00:10:49.540Z,2.89
2018-12-27T00:11:49.428Z,2.95
2018-12-27T00:12:49.383Z,2.89
2018-12-27T00:13:49.341Z,2.95
2018-12-27T00:14:49.299Z,2.92
2018-12-27T00:15:49.258Z,3.00
2018-12-27T00:16:49.224Z,2.93
2018-12-27T00:17:49.184Z,2.87
2018-12-27T00:18:49.148Z,2.90
2018-12-27T00:19:49.114Z,2.97
2018-12-27T00:20:49.091Z,3.00
2018-12-27T00:21:49.027Z,2.92
2018-12-27T00:22:49.003Z,2.97
2018-12-27T00:23:48.954Z,3.03
2018-12-27T00:24:48.912Z,3.00
2018-12-27T00:25:48.889Z,3.03
2018-12-27T00:26:48.847Z,3.03
2018-12-27T00:27:48.802Z,3.03
2018-12-27T00:28:48.757Z,3.10
2018-12-27T00:29:48.728Z,3.04
2018-12-27T00:30:48.694Z,3.05
2018-12-27T00:31:48.642Z,3.07
2018-12-27T00:32:48.626Z,3.08
2018-12-27T00:33:48.575Z,3.04
2018-12-27T00:34:48.538Z,3.00
2018-12-27T00:35:48.494Z,3.10
2018-12-27T00:36:48.455Z,3.04
2018-12-27T00:37:48.422Z,3.01
2018-12-27T00:38:48.389Z,2.97
2018-12-27T00:39:48.339Z,3.00
2018-12-27T00:40:48.300Z,2.93
2018-12-27T00:41:48.266Z,2.97
2018-12-27T00:42:48.220Z,2.98
2018-12-27T00:43:48.190Z,3.00
2018-12-27T00:44:48.160Z,2.98
2018-12-27T00:45:48.118Z,3.03
2018-12-27T00:46:48.066Z,3.03
2018-12-27T00:47:48.038Z,3.13
2018-12-27T00:48:47.990Z,3.03
2018-12-27T00:49:47.953Z,3.03
2018-12-27T00:50:47.910Z,3.03
2018-12-27T00:51:47.865Z,3.03
2018-12-27T00:52:47.826Z,3.04
2018-12-27T00:53:47.813Z,3.11
2018-12-27T00:54:47.761Z,3.07
2018-12-27T00:55:47.721Z,3.04
2018-12-27T00:56:47.704Z,3.08
2018-12-27T00:57:47.655Z,3.07
2018-12-27T00:58:47.616Z,3.11
2018-12-27T00:59:47.568Z,3.04
2018-12-27T01:00:47.528Z,3.07
2018-12-27T01:01:47.493Z,3.07
2018-12-27T01:02:47.456Z,3.11
2018-12-27T01:03:47.408Z,3.08
2018-12-27T01:04:47.374Z,3.07
2018-12-27T01:05:47.343Z,3.07
2018-12-27T01:06:47.295Z,3.11
2018-12-27T01:07:47.259Z,3.11
2018-12-27T01:08:47.222Z,3.07
2018-12-27T01:09:47.188Z,3.13
2018-12-27T01:10:47.150Z,3.08
2018-12-27T01:11:47.104Z,3.05
2018-12-27T01:12:47.086Z,3.13
2018-12-27T01:13:47.035Z,3.10
2018-12-27T01:14:47.001Z,3.19
2018-12-27T01:15:46.940Z,3.16
2018-12-27T01:16:46.916Z,3.16
2018-12-27T01:17:46.875Z,3.14
2018-12-27T01:18:46.871Z,3.16
2018-12-27T01:19:46.791Z,3.13
2018-12-27T01:20:46.756Z,3.10
2018-12-27T01:21:46.731Z,3.10
2018-12-27T01:22:46.699Z,3.13
2018-12-27T01:23:46.651Z,3.14
2018-12-27T01:24:46.600Z,3.23
2018-12-27T01:25:46.569Z,3.10
2018-12-27T01:26:46.554Z,3.16
2018-12-27T01:27:46.492Z,3.16
2018-12-27T01:28:46.483Z,3.11
2018-12-27T01:29:46.420Z,3.21
2018-12-27T01:30:46.379Z,3.19
2018-12-27T01:31:50.558Z,3.16
2018-12-27T01:32:46.305Z,3.16
2018-12-27T01:33:46.255Z,3.22
2018-12-27T01:34:46.220Z,3.26
2018-12-27T01:35:46.185Z,3.16
2018-12-27T01:36:46.149Z,3.07
2018-12-27T01:37:46.107Z,3.08
2018-12-27T01:38:46.071Z,3.10
2018-12-27T01:39:46.077Z,3.03
2018-12-27T01:40:45.995Z,3.11
2018-12-27T01:41:45.950Z,3.11
2018-12-27T01:42:45.916Z,3.11
2018-12-27T01:43:45.879Z,3.11
2018-12-27T01:44:45.842Z,3.10
2018-12-27T01:45:45.793Z,3.10
2018-12-27T01:46:45.761Z,3.13
2018-12-27T01:47:45.720Z,3.07
2018-12-27T01:48:45.689Z,3.13
2018-12-27T01:49:45.646Z,3.10
2018-12-27T01:50:45.614Z,3.18
2018-12-27T01:51:45.585Z,3.14
2018-12-27T01:52:45.526Z,3.14
2018-12-27T01:53:45.486Z,3.13
2018-12-27T01:54:45.458Z,3.11
2018-12-27T01:55:45.433Z,3.19
2018-12-27T01:56:45.372Z,3.14
2018-12-27T01:57:45.348Z,3.13
2018-12-27T01:58:45.308Z,3.18
2018-12-27T01:59:45.262Z,3.21
2018-12-27T02:00:45.226Z,3.25
2018-12-27T02:01:45.182Z,3.18
2018-12-27T02:02:45.151Z,3.18
2018-12-27T02:03:45.112Z,3.22
2018-12-27T02:04:45.077Z,3.22
2018-12-27T02:05:45.038Z,3.23
2018-12-27T02:06:45.003Z,3.21
2018-12-27T02:07:44.957Z,3.23
2018-12-27T02:08:44.912Z,3.22
2018-12-27T02:09:44.874Z,3.22
2018-12-27T02:10:44.837Z,3.22
2018-12-27T02:11:44.806Z,3.28
2018-12-27T02:12:44.763Z,3.28
2018-12-27T02:13:44.731Z,3.23
2018-12-27T02:14:44.687Z,3.25
2018-12-27T02:15:44.668Z,3.26
2018-12-27T02:16:44.609Z,3.26
2018-12-27T02:17:44.585Z,3.29
2018-12-27T02:18:44.538Z,3.23
2018-12-27T02:19:44.512Z,3.31
2018-12-27T02:20:44.453Z,3.22
2018-12-27T02:21:44.515Z,3.21
2018-12-27T02:22:44.382Z,3.23
2018-12-27T02:23:44.343Z,3.25
2018-12-27T02:24:44.345Z,3.23
2018-12-27T02:25:44.274Z,3.22
2018-12-27T02:26:44.229Z,3.22
2018-12-27T02:27:44.192Z,3.19
2018-12-27T02:28:44.157Z,3.19
2018-12-27T02:29:44.114Z,3.19
2018-12-27T02:30:44.080Z,3.21
2018-12-27T02:31:44.057Z,3.21
2018-12-27T02:32:43.998Z,3.23
2018-12-27T02:33:43.954Z,3.21
2018-12-27T02:34:43.925Z,3.16
2018-12-27T02:35:43.879Z,3.16
2018-12-27T02:36:43.854Z,3.19
2018-12-27T02:37:43.811Z,3.14
2018-12-27T02:38:43.765Z,3.11
2018-12-27T02:39:43.738Z,3.13
2018-12-27T02:40:43.699Z,3.11
2018-12-27T02:41:43.646Z,3.07
2018-12-27T02:42:43.613Z,3.05
2018-12-27T02:43:43.573Z,3.10
2018-12-27T02:44:43.538Z,3.10
2018-12-27T02:45:43.499Z,3.04
2018-12-27T02:46:43.461Z,3.03
2018-12-27T02:47:43.418Z,3.05
2018-12-27T02:48:43.385Z,3.07
2018-12-27T02:49:43.358Z,3.01
2018-12-27T02:50:43.314Z,3.01
2018-12-27T02:51:43.268Z,3.01
2018-12-27T02:52:43.231Z,3.07
2018-12-27T02:53:43.189Z,3.01
2018-12-27T02:54:43.156Z,3.03
2018-12-27T02:55:43.124Z,3.01
2018-12-27T02:56:43.076Z,2.95
2018-12-27T02:57:43.049Z,3.03
2018-12-27T02:58:43.004Z,3.04
2018-12-27T02:59:42.971Z,3.08
2018-12-27T03:00:42.915Z,3.03
2018-12-27T03:01:42.891Z,3.03
2018-12-27T03:02:42.846Z,3.00
2018-12-27T03:03:44.063Z,3.05
2018-12-27T03:04:42.766Z,3.04
2018-12-27T03:05:42.727Z,3.00
2018-12-27T03:06:42.691Z,3.03
2018-12-27T03:07:42.649Z,3.05
2018-12-27T03:08:42.623Z,3.01
2018-12-27T03:09:42.576Z,3.04
2018-12-27T03:10:42.539Z,3.04
2018-12-27T03:11:42.511Z,3.01
2018-12-27T03:12:42.465Z,3.01
2018-12-27T03:13:42.420Z,3.01
2018-12-27T03:14:42.379Z,3.00
2018-12-27T03:15:42.349Z,2.86
2018-12-27T03:16:42.340Z,2.95
2018-12-27T03:17:42.270Z,2.86
2018-12-27T03:18:42.231Z,2.92
2018-12-27T03:19:42.190Z,2.86
2018-12-27T03:20:42.155Z,2.90
2018-12-27T03:21:42.107Z,2.92
2018-12-27T03:22:42.077Z,2.90
2018-12-27T03:23:42.041Z,2.92
2018-12-27T03:24:42.000Z,2.92
2018-12-27T03:25:41.959Z,2.90
2018-12-27T03:26:41.925Z,2.90
2018-12-27T03:27:41.882Z,2.86
2018-12-27T03:28:41.847Z,2.89
2018-12-27T03:29:41.803Z,2.85
2018-12-27T03:30:41.768Z,2.77
2018-12-27T03:31:41.734Z,2.83
2018-12-27T03:32:41.701Z,2.79
2018-12-27T03:33:41.660Z,2.82
2018-12-27T03:34:41.616Z,2.85
2018-12-27T03:35:41.567Z,2.87
2018-12-27T03:36:41.537Z,2.77
2018-12-27T03:37:41.492Z,2.85
2018-12-27T03:38:41.447Z,2.83
2018-12-27T03:39:41.422Z,2.85
2018-12-27T03:40:41.389Z,2.75
2018-12-27T03:41:41.339Z,2.79
2018-12-27T03:42:41.301Z,2.77
2018-12-27T03:43:41.256Z,2.74
2018-12-27T03:44:41.234Z,2.77
2018-12-27T03:45:41.179Z,2.75
2018-12-27T03:46:41.152Z,2.68
2018-12-27T03:47:41.111Z,2.65
2018-12-27T03:48:41.073Z,2.67
2018-12-27T03:49:41.032Z,2.65
2018-12-27T03:50:40.993Z,2.65
2018-12-27T03:51:40.959Z,2.56
2018-12-27T03:52:40.915Z,2.61
2018-12-27T03:53:40.878Z,2.61
2018-12-27T03:54:40.835Z,2.62
2018-12-27T03:55:40.821Z,2.60
2018-12-27T03:56:40.754Z,2.65
2018-12-27T03:57:40.737Z,2.57
2018-12-27T03:58:40.685Z,2.56
2018-12-27T03:59:40.645Z,2.56
2018-12-27T04:00:40.603Z,2.54
2018-12-27T04:01:40.587Z,2.50
2018-12-27T04:02:40.527Z,2.57
2018-12-27T04:03:40.490Z,2.44
2018-12-27T04:04:40.458Z,2.47
2018-12-27T04:05:40.415Z,2.43
2018-12-27T04:06:40.368Z,2.43
2018-12-27T04:07:40.330Z,2.32
2018-12-27T04:08:40.294Z,2.28
2018-12-27T04:09:40.265Z,2.39
2018-12-27T04:10:40.220Z,2.25
2018-12-27T04:11:40.180Z,2.28
2018-12-27T04:12:40.145Z,2.33
2018-12-27T04:13:40.099Z,2.32
2018-12-27T04:14:40.063Z,2.28
2018-12-27T04:15:40.024Z,2.29
2018-12-27T04:16:39.986Z,2.25
2018-12-27T04:17:39.970Z,2.26
2018-12-27T04:18:39.911Z,2.14
2018-12-27T04:19:39.873Z,2.24
2018-12-27T04:20:39.835Z,2.22
2018-12-27T04:21:39.794Z,2.14
2018-12-27T04:22:39.748Z,2.20
2018-12-27T04:23:39.710Z,2.24
2018-12-27T04:24:39.677Z,2.17
2018-12-27T04:25:39.632Z,2.17
2018-12-27T04:26:39.601Z,2.18
2018-12-27T04:27:39.567Z,2.17
2018-12-27T04:28:39.517Z,2.13
2018-12-27T04:29:39.501Z,2.14
2018-12-27T04:30:39.459Z,2.14
2018-12-27T04:31:39.413Z,2.13
2018-12-27T04:32:39.360Z,2.11
2018-12-27T04:33:39.324Z,2.08
2018-12-27T04:34:39.310Z,2.08
2018-12-27T04:35:39.247Z,2.04
2018-12-27T04:36:39.220Z,2.07
2018-12-27T04:37:39.169Z,2.04
2018-12-27T04:38:39.143Z,2.04
2018-12-27T04:39:39.091Z,2.04
2018-12-27T04:40:39.050Z,2.02
2018-12-27T04:41:39.013Z,2.08
2018-12-27T04:42:38.978Z,1.99
2018-12-27T04:43:38.930Z,1.97
2018-12-27T04:44:38.900Z,2.02
2018-12-27T04:45:38.862Z,2.02
2018-12-27T04:46:38.817Z,2.08
2018-12-27T04:47:38.776Z,2.00
2018-12-27T04:48:38.751Z,1.97
2018-12-27T04:49:38.702Z,1.99
2018-12-27T04:50:38.665Z,1.97
2018-12-27T04:51:38.629Z,1.97
2018-12-27T04:52:38.591Z,1.97
2018-12-27T04:53:38.546Z,2.00
2018-12-27T04:54:38.517Z,2.06
2018-12-27T04:55:38.462Z,1.99
2018-12-27T04:56:38.427Z,1.95
2018-12-27T04:57:38.388Z,2.00
2018-12-27T04:58:38.351Z,1.99
2018-12-27T04:59:38.302Z,1.92
2018-12-27T05:00:38.277Z,1.95
2018-12-27T05:01:38.241Z,1.91
2018-12-27T05:02:38.207Z,1.94
2018-12-27T05:03:38.156Z,1.91
2018-12-27T05:04:38.107Z,1.92
2018-12-27T05:05:38.075Z,1.91
2018-12-27T05:06:38.037Z,1.78
2018-12-27T05:07:37.991Z,1.81
2018-12-27T05:08:37.957Z,1.87
2018-12-27T05:09:37.922Z,1.78
2018-12-27T05:10:37.877Z,1.80
2018-12-27T05:11:37.843Z,1.80
2018-12-27T05:12:37.817Z,1.74
2018-12-27T05:13:37.753Z,1.78
2018-12-27T05:14:37.722Z,1.80
2018-12-27T05:15:37.683Z,1.76
2018-12-27T05:16:37.644Z,1.78
2018-12-27T05:17:37.601Z,1.80
2018-12-27T05:18:37.575Z,1.76
2018-12-27T05:19:37.527Z,1.77
2018-12-27T05:20:37.491Z,1.81
2018-12-27T05:21:37.451Z,1.76
2018-12-27T05:22:37.417Z,1.77
2018-12-27T05:23:37.383Z,1.74
2018-12-27T05:24:37.329Z,1.73
2018-12-27T05:25:37.298Z,1.76
2018-12-27T05:26:37.272Z,1.74
2018-12-27T05:27:37.207Z,1.76
2018-12-27T05:28:37.176Z,1.67
2018-12-27T05:29:37.143Z,1.76
2018-12-27T05:30:37.103Z,1.71
2018-12-27T05:31:37.057Z,1.76
2018-12-27T05:32:37.016Z,1.76
2018-12-27T05:33:36.976Z,1.77
2018-12-27T05:34:36.936Z,1.73
2018-12-27T05:35:36.902Z,1.68
2018-12-27T05:36:36.859Z,1.76
2018-12-27T05:37:36.828Z,1.77
2018-12-27T05:38:36.782Z,1.76
2018-12-27T05:39:36.742Z,1.68
2018-12-27T05:40:36.701Z,1.66
2018-12-27T05:41:36.668Z,1.70
2018-12-27T05:42:36.622Z,1.70
2018-12-27T05:43:36.583Z,1.70
2018-12-27T05:44:36.547Z,1.63
2018-12-27T05:45:36.510Z,1.71
2018-12-27T05:46:36.475Z,1.74
2018-12-27T05:47:36.424Z,1.73
2018-12-27T05:48:36.409Z,1.74
2018-12-27T05:49:36.356Z,1.66
2018-12-27T05:50:36.322Z,1.74
2018-12-27T05:51:36.275Z,1.66
2018-12-27T05:52:36.233Z,1.74
2018-12-27T05:53:36.192Z,1.66
2018-12-27T05:54:36.145Z,1.66
2018-12-27T05:55:36.108Z,1.63
2018-12-27T05:56:36.070Z,1.66
2018-12-27T05:57:36.033Z,1.74
2018-12-27T05:58:36.007Z,1.68
2018-12-27T05:59:35.960Z,1.74
2018-12-27T06:00:35.934Z,1.67
2018-12-27T06:01:35.888Z,1.62
2018-12-27T06:02:35.833Z,1.67
2018-12-27T06:03:35.794Z,1.71
2018-12-27T06:04:35.762Z,1.67
2018-12-27T06:05:35.719Z,1.67
2018-12-27T06:06:35.679Z,1.59
2018-12-27T06:07:35.645Z,1.60
2018-12-27T06:08:35.614Z,1.67
2018-12-27T06:09:35.563Z,1.66
2018-12-27T06:10:35.524Z,1.60
2018-12-27T06:11:35.475Z,1.73
2018-12-27T06:12:35.444Z,1.60
2018-12-27T06:13:35.444Z,1.62
2018-12-27T06:14:35.370Z,1.62
2018-12-27T06:15:35.329Z,1.62
2018-12-27T06:16:35.285Z,1.60
2018-12-27T06:17:35.258Z,1.59
2018-12-27T06:18:35.210Z,1.62
2018-12-27T06:19:35.166Z,1.56
2018-12-27T06:20:35.129Z,1.59
2018-12-27T06:21:35.093Z,1.60
2018-12-27T06:22:35.055Z,1.60
2018-12-27T06:23:35.015Z,1.58
2018-12-27T06:24:34.975Z,1.60
2018-12-27T06:25:34.930Z,1.60
2018-12-27T06:26:34.900Z,1.67
2018-12-27T06:27:34.855Z,1.63
2018-12-27T06:28:34.806Z,1.59
2018-12-27T06:29:34.795Z,1.55
2018-12-27T06:30:34.729Z,1.56
2018-12-27T06:31:34.695Z,1.58
2018-12-27T06:32:34.659Z,1.60
2018-12-27T06:33:34.615Z,1.60
2018-12-27T06:34:41.135Z,1.53
2018-12-27T06:35:34.555Z,1.56
2018-12-27T06:36:34.509Z,1.62
2018-12-27T06:37:34.489Z,1.52
2018-12-27T06:38:34.425Z,1.53
2018-12-27T06:39:34.386Z,1.53
2018-12-27T06:40:34.351Z,1.53
2018-12-27T06:41:34.305Z,1.50
2018-12-27T06:42:34.264Z,1.52
2018-12-27T06:43:34.232Z,1.58
2018-12-27T06:44:34.188Z,1.49
2018-12-27T06:45:34.150Z,1.52
2018-12-27T06:46:34.150Z,1.52
2018-12-27T06:47:34.092Z,1.53
2018-12-27T06:48:34.034Z,1.53
2018-12-27T06:49:33.990Z,1.56
2018-12-27T06:50:33.969Z,1.56
2018-12-27T06:51:33.930Z,1.55
2018-12-27T06:52:33.870Z,1.56
2018-12-27T06:53:33.835Z,1.62
2018-12-27T06:54:33.796Z,1.53
2018-12-27T06:55:33.748Z,1.58
2018-12-27T06:56:33.716Z,1.55
2018-12-27T06:57:33.675Z,1.58
2018-12-27T06:58:37.729Z,1.55
2018-12-27T06:59:33.631Z,1.58
2018-12-27T07:00:33.560Z,1.62
2018-12-27T07:01:33.526Z,1.58
2018-12-27T07:02:33.496Z,1.52
2018-12-27T07:03:33.432Z,1.50
2018-12-27T07:04:33.403Z,1.59
2018-12-27T07:05:33.366Z,1.52
2018-12-27T07:06:33.316Z,1.56
2018-12-27T07:07:33.278Z,1.56
2018-12-27T07:08:33.244Z,1.55
2018-12-27T07:09:33.201Z,1.52
2018-12-27T07:10:33.153Z,1.52
2018-12-27T07:11:33.139Z,1.58
2018-12-27T07:12:33.091Z,1.58
2018-12-27T07:13:33.049Z,1.58
2018-12-27T07:14:33.011Z,1.56
2018-12-27T07:15:32.991Z,1.55
2018-12-27T07:16:32.927Z,1.56
2018-12-27T07:17:32.893Z,1.55
2018-12-27T07:18:32.853Z,1.63
2018-12-27T07:19:32.812Z,1.59
2018-12-27T07:20:32.788Z,1.63
2018-12-27T07:21:32.743Z,1.58
2018-12-27T07:22:32.704Z,1.63
2018-12-27T07:23:32.667Z,1.55
2018-12-27T07:24:32.611Z,1.60
2018-12-27T07:25:32.579Z,1.58
2018-12-27T07:26:32.528Z,1.60
2018-12-27T07:27:32.502Z,1.58
2018-12-27T07:28:32.462Z,1.60
2018-12-27T07:29:32.418Z,1.60
2018-12-27T07:30:32.379Z,1.58
2018-12-27T07:31:32.335Z,1.60
2018-12-27T07:32:32.298Z,1.63
2018-12-27T07:33:32.264Z,1.59
2018-12-27T07:34:32.214Z,1.58
2018-12-27T07:35:32.189Z,1.60
2018-12-27T07:36:32.142Z,1.59
2018-12-27T07:37:32.103Z,1.55
2018-12-27T07:38:32.059Z,1.62
2018-12-27T07:39:32.030Z,1.58
2018-12-27T07:40:31.985Z,1.56
2018-12-27T07:41:31.950Z,1.59
2018-12-27T07:42:31.950Z,1.63
2018-12-27T07:43:31.873Z,1.62
2018-12-27T07:44:31.833Z,1.60
2018-12-27T07:45:31.793Z,1.58
2018-12-27T07:46:31.750Z,1.73
2018-12-27T07:47:31.714Z,1.70
2018-12-27T07:48:31.681Z,1.63
2018-12-27T07:49:31.623Z,1.60
2018-12-27T07:50:31.586Z,1.66
2018-12-27T07:51:31.553Z,1.68
2018-12-27T07:52:31.511Z,1.74
2018-12-27T07:53:31.473Z,1.68
2018-12-27T07:54:31.447Z,1.73
2018-12-27T07:55:31.390Z,1.71
2018-12-27T07:56:31.359Z,1.78
2018-12-27T07:57:31.309Z,1.73
2018-12-27T07:58:31.276Z,1.78
2018-12-27T07:59:31.231Z,1.81
2018-12-27T08:00:31.197Z,1.73
2018-12-27T08:01:31.170Z,1.74
2018-12-27T08:02:31.124Z,1.68
2018-12-27T08:03:31.084Z,1.84
2018-12-27T08:04:31.055Z,1.80
2018-12-27T08:05:31.010Z,1.85
2018-12-27T08:06:30.984Z,1.80
2018-12-27T08:07:30.915Z,1.91
2018-12-27T08:08:30.886Z,1.88
2018-12-27T08:09:30.844Z,1.92
2018-12-27T08:10:30.805Z,1.89
2018-12-27T08:11:30.763Z,1.91
2018-12-27T08:12:30.739Z,1.94
2018-12-27T08:13:30.687Z,1.91
2018-12-27T08:14:30.661Z,1.94
2018-12-27T08:15:30.610Z,2.04
2018-12-27T08:16:30.576Z,1.97
2018-12-27T08:17:30.529Z,1.92
2018-12-27T08:18:30.489Z,2.02
2018-12-27T08:19:30.450Z,2.00
2018-12-27T08:20:30.415Z,2.00
2018-12-27T08:21:30.381Z,2.04
2018-12-27T08:22:30.330Z,2.14
2018-12-27T08:23:30.300Z,2.04
2018-12-27T08:24:30.262Z,1.95
2018-12-27T08:25:30.235Z,1.97
2018-12-27T08:26:30.182Z,1.99
2018-12-27T08:27:30.144Z,2.06
2018-12-27T08:28:30.097Z,2.06
2018-12-27T08:29:30.057Z,2.14
2018-12-27T08:30:30.016Z,2.04
2018-12-27T08:31:29.977Z,2.14
2018-12-27T08:32:29.956Z,2.14
2018-12-27T08:33:29.907Z,2.15
2018-12-27T08:34:29.873Z,2.14
2018-12-27T08:35:29.833Z,2.08
2018-12-27T08:36:29.801Z,2.14
2018-12-27T08:37:29.747Z,2.17
2018-12-27T08:38:29.708Z,2.17
2018-12-27T08:39:29.681Z,2.24
2018-12-27T08:40:29.631Z,2.28
2018-12-27T08:41:29.597Z,2.25
2018-12-27T08:42:29.562Z,2.29
2018-12-27T08:43:29.527Z,2.22
2018-12-27T08:44:29.483Z,2.29
2018-12-27T08:45:29.442Z,2.33
2018-12-27T08:46:29.393Z,2.36
2018-12-27T08:47:29.358Z,2.39
2018-12-27T08:48:29.319Z,2.32
2018-12-27T08:49:29.313Z,2.32
2018-12-27T08:50:29.247Z,2.42
2018-12-27T08:51:29.198Z,2.47
2018-12-27T08:52:29.188Z,2.47
2018-12-27T08:53:29.147Z,2.42
2018-12-27T08:54:29.086Z,2.56
2018-12-27T08:55:29.057Z,2.50
2018-12-27T08:56:29.013Z,2.57
2018-12-27T08:57:28.966Z,2.62
2018-12-27T08:58:28.931Z,2.60
2018-12-27T08:59:28.897Z,2.61
2018-12-27T09:00:28.868Z,2.60
2018-12-27T09:01:28.817Z,2.68
2018-12-27T09:02:28.793Z,2.72
2018-12-27T09:03:28.734Z,2.71
2018-12-27T09:04:28.689Z,2.86
2018-12-27T09:05:28.668Z,2.85
2018-12-27T09:06:28.640Z,2.86
2018-12-27T09:07:28.584Z,2.85
2018-12-27T09:08:28.539Z,2.83
2018-12-27T09:09:28.502Z,2.87
2018-12-27T09:10:28.464Z,2.93
2018-12-27T09:11:28.436Z,2.85
2018-12-27T09:12:28.384Z,2.85
2018-12-27T09:13:28.347Z,2.98
2018-12-27T09:14:28.319Z,2.89
2018-12-27T09:15:28.277Z,3.01
2018-12-27T09:16:28.229Z,3.08
2018-12-27T09:17:28.193Z,3.03
2018-12-27T09:18:28.154Z,3.10
2018-12-27T09:19:28.143Z,3.08
2018-12-27T09:20:28.084Z,3.14
2018-12-27T09:21:28.047Z,3.23
2018-12-27T09:22:28.004Z,3.25
2018-12-27T09:23:27.964Z,3.26
2018-12-27T09:24:27.932Z,3.32
2018-12-27T09:25:27.900Z,3.32
2018-12-27T09:26:27.854Z,3.31
2018-12-27T09:27:27.837Z,3.41
2018-12-27T09:28:27.785Z,3.51
2018-12-27T09:29:27.737Z,3.51
2018-12-27T09:30:27.705Z,3.51
2018-12-27T09:31:27.658Z,3.51
2018-12-27T09:32:27.631Z,3.53
2018-12-27T09:33:27.584Z,3.60
2018-12-27T09:34:27.552Z,3.56
2018-12-27T09:35:27.502Z,3.77
2018-12-27T09:36:27.465Z,3.65
2018-12-27T09:37:27.427Z,3.80
2018-12-27T09:38:27.409Z,3.80
2018-12-27T09:39:27.343Z,3.87
2018-12-27T09:40:27.310Z,3.92
2018-12-27T09:41:27.295Z,3.96
2018-12-27T09:42:27.249Z,4.02
2018-12-27T09:43:27.201Z,4.05
2018-12-27T09:44:27.164Z,4.19
2018-12-27T09:45:27.135Z,4.28
2018-12-27T09:46:27.086Z,4.37
2018-12-27T09:47:27.050Z,4.52
2018-12-27T09:48:27.009Z,4.53
2018-12-27T09:49:26.968Z,4.68
2018-12-27T09:50:26.988Z,4.77
2018-12-27T09:51:26.909Z,4.78
2018-12-27T09:52:26.865Z,4.96
2018-12-27T09:53:26.835Z,5.00
2018-12-27T09:54:26.790Z,5.17
2018-12-27T09:55:26.747Z,5.26
2018-12-27T09:56:26.705Z,5.35
2018-12-27T09:57:26.674Z,5.46
2018-12-27T09:58:26.636Z,5.44
2018-12-27T09:59:26.605Z,5.54
2018-12-27T10:00:26.558Z,5.65
2018-12-27T10:01:26.534Z,5.75
2018-12-27T10:02:26.512Z,5.79
2018-12-27T10:03:26.456Z,5.89
2018-12-27T10:04:26.431Z,6.02
2018-12-27T10:05:33.592Z,6.05
2018-12-27T10:06:26.349Z,6.16
2018-12-27T10:07:26.316Z,6.30
2018-12-27T10:08:26.284Z,6.48
2018-12-27T10:09:26.246Z,6.49
2018-12-27T10:10:26.214Z,6.66
2018-12-27T10:11:26.172Z,6.64
2018-12-27T10:12:26.126Z,6.72
2018-12-27T10:13:26.095Z,6.75
2018-12-27T10:14:26.047Z,6.77
2018-12-27T10:15:26.021Z,6.78
2018-12-27T10:16:25.986Z,6.87
2018-12-27T10:17:25.948Z,6.97
2018-12-27T10:18:25.916Z,7.07
2018-12-27T10:19:25.887Z,7.11
2018-12-27T10:20:25.837Z,7.24
2018-12-27T10:21:25.804Z,7.36
2018-12-27T10:22:25.771Z,7.47
2018-12-27T10:23:26.480Z,7.47
2018-12-27T10:24:25.707Z,7.61
2018-12-27T10:25:25.675Z,7.69
2018-12-27T10:26:25.643Z,7.88
2018-12-27T10:27:25.602Z,7.94
2018-12-27T10:28:25.564Z,8.13
2018-12-27T10:29:25.546Z,8.27
2018-12-27T10:30:25.494Z,8.41
2018-12-27T10:31:25.455Z,8.48
2018-12-27T10:32:25.427Z,8.58
2018-12-27T10:33:25.396Z,8.79
2018-12-27T10:34:25.357Z,8.85
2018-12-27T10:35:25.325Z,8.88
2018-12-27T10:36:25.298Z,8.95
2018-12-27T10:37:25.250Z,9.04
2018-12-27T10:38:25.217Z,9.03
2018-12-27T10:39:25.177Z,9.14
2018-12-27T10:40:25.153Z,9.10
2018-12-27T10:41:25.127Z,9.00
2018-12-27T10:42:25.087Z,9.04
2018-12-27T10:43:25.042Z,8.92
2018-12-27T10:44:25.029Z,8.87
2018-12-27T10:45:24.987Z,8.79
2018-12-27T10:46:24.951Z,8.79
2018-12-27T10:47:24.913Z,8.71
2018-12-27T10:48:24.878Z,8.70
2018-12-27T10:49:24.853Z,8.66
2018-12-27T10:50:24.817Z,8.51
2018-12-27T10:51:24.777Z,8.58
2018-12-27T10:52:24.747Z,8.58
2018-12-27T10:53:24.704Z,8.45
2018-12-27T10:54:24.673Z,8.36
2018-12-27T10:55:24.634Z,8.37
2018-12-27T10:56:24.612Z,8.37
2018-12-27T10:57:24.576Z,8.37
2018-12-27T10:58:24.529Z,8.33
2018-12-27T10:59:24.502Z,8.33
2018-12-27T11:00:24.466Z,8.23
2018-12-27T11:01:24.428Z,8.23
2018-12-27T11:02:24.390Z,8.23
2018-12-27T11:03:30.563Z,8.16
2018-12-27T11:04:24.331Z,8.10
2018-12-27T11:05:24.302Z,8.12
2018-12-27T11:06:24.272Z,8.09
2018-12-27T11:07:24.228Z,8.01
2018-12-27T11:08:24.188Z,8.01
2018-12-27T11:09:24.154Z,8.05
2018-12-27T11:10:24.116Z,8.23
2018-12-27T11:11:24.089Z,8.31
2018-12-27T11:12:24.054Z,8.33
2018-12-27T11:13:24.078Z,8.30
2018-12-27T11:14:23.973Z,8.52
2018-12-27T11:15:23.954Z,8.49
2018-12-27T11:16:23.899Z,8.53
2018-12-27T11:17:23.870Z,8.60
2018-12-27T11:18:23.837Z,8.69
2018-12-27T11:19:23.800Z,8.76
2018-12-27T11:20:23.769Z,8.76
2018-12-27T11:21:23.734Z,8.91
2018-12-27T11:22:23.704Z,8.88
2018-12-27T11:23:23.669Z,8.88
2018-12-27T11:24:23.628Z,8.92
2018-12-27T11:25:23.606Z,8.94
2018-12-27T11:26:23.561Z,8.92
2018-12-27T11:27:23.527Z,8.67
2018-12-27T11:28:23.501Z,8.70
2018-12-27T11:29:23.460Z,8.73
2018-12-27T11:30:23.425Z,8.76
2018-12-27T11:31:23.388Z,8.78
2018-12-27T11:32:23.369Z,8.84
2018-12-27T11:33:23.317Z,8.78
2018-12-27T11:34:23.296Z,8.74
2018-12-27T11:35:23.258Z,8.78
2018-12-27T11:36:23.218Z,8.82
2018-12-27T11:37:23.190Z,8.79
2018-12-27T11:38:23.154Z,8.76
2018-12-27T11:39:23.120Z,8.79
2018-12-27T11:40:23.090Z,8.76
2018-12-27T11:41:23.050Z,8.73
2018-12-27T11:42:23.019Z,8.71
2018-12-27T11:43:22.985Z,8.76
2018-12-27T11:44:22.935Z,8.66
2018-12-27T11:45:22.911Z,8.61
2018-12-27T11:46:22.885Z,8.67
2018-12-27T11:47:22.840Z,8.61
2018-12-27T11:48:22.979Z,8.60
2018-12-27T11:49:22.833Z,8.53
2018-12-27T11:50:22.746Z,8.58
2018-12-27T11:51:22.701Z,8.48
2018-12-27T11:52:22.674Z,8.42
2018-12-27T11:53:22.647Z,8.45
2018-12-27T11:54:22.644Z,8.46
2018-12-27T11:55:22.556Z,8.45
2018-12-27T11:56:22.534Z,8.42
2018-12-27T11:57:22.513Z,8.51
2018-12-27T11:58:22.462Z,8.58
2018-12-27T11:59:22.425Z,8.45
2018-12-27T12:00:22.385Z,8.44
2018-12-27T12:01:22.385Z,8.46
2018-12-27T12:02:22.319Z,8.53
2018-12-27T12:03:22.312Z,8.70
2018-12-27T12:04:22.254Z,8.71
2018-12-27T12:05:22.220Z,8.67
2018-12-27T12:06:22.180Z,8.73
2018-12-27T12:07:22.189Z,8.85
2018-12-27T12:08:22.110Z,8.71
2018-12-27T12:09:22.066Z,8.78
2018-12-27T12:10:22.080Z,8.71
2018-12-27T12:11:22.010Z,8.69
2018-12-27T12:12:21.988Z,8.74
2018-12-27T12:13:21.953Z,8.76
2018-12-27T12:14:21.902Z,8.74
2018-12-27T12:15:21.863Z,8.78
2018-12-27T12:16:21.832Z,8.81
2018-12-27T12:17:21.801Z,8.82
2018-12-27T12:18:21.763Z,8.70
2018-12-27T12:19:21.736Z,8.67
2018-12-27T12:20:21.689Z,8.69
2018-12-27T12:21:22.493Z,8.66
2018-12-27T12:22:21.631Z,8.66
2018-12-27T12:23:21.592Z,8.67
2018-12-27T12:24:21.567Z,8.58
2018-12-27T12:25:21.527Z,8.61
2018-12-27T12:26:21.491Z,8.60
2018-12-27T12:27:21.453Z,8.60
2018-12-27T12:28:21.432Z,8.58
2018-12-27T12:29:21.402Z,8.55
2018-12-27T12:30:21.353Z,8.42
2018-12-27T12:31:21.313Z,8.37
2018-12-27T12:32:21.274Z,8.46
2018-12-27T12:33:21.242Z,8.56
2018-12-27T12:34:21.224Z,8.71
2018-12-27T12:35:21.202Z,8.91
2018-12-27T12:36:21.147Z,8.94
2018-12-27T12:37:21.113Z,9.03
2018-12-27T12:38:21.073Z,9.14
2018-12-27T12:39:21.039Z,9.36
2018-12-27T12:40:21.007Z,9.31
2018-12-27T12:41:20.984Z,9.46
2018-12-27T12:42:32.495Z,9.64
2018-12-27T12:43:20.904Z,9.73
2018-12-27T12:44:20.854Z,9.74
2018-12-27T12:45:20.823Z,9.82
2018-12-27T12:46:20.799Z,9.92
2018-12-27T12:47:20.770Z,9.92
2018-12-27T12:48:20.734Z,9.99
2018-12-27T12:49:20.694Z,9.95
2018-12-27T12:50:20.664Z,10.07
2018-12-27T12:51:20.623Z,10.05
2018-12-27T12:52:20.612Z,10.09
2018-12-27T12:53:20.559Z,10.05
2018-12-27T12:54:20.534Z,10.13
2018-12-27T12:55:20.497Z,10.19
2018-12-27T12:56:20.474Z,10.26
2018-12-27T12:57:20.428Z,10.20
2018-12-27T12:58:20.393Z,10.28
2018-12-27T12:59:20.365Z,10.30
2018-12-27T13:00:20.333Z,10.31
2018-12-27T13:01:20.285Z,10.31
2018-12-27T13:02:20.253Z,10.33
2018-12-27T13:03:20.225Z,10.40
2018-12-27T13:04:20.188Z,10.46
2018-12-27T13:05:20.151Z,10.51
2018-12-27T13:06:20.129Z,10.51
2018-12-27T13:07:20.125Z,10.61
2018-12-27T13:08:20.065Z,10.59
2018-12-27T13:09:20.030Z,10.64
2018-12-27T13:10:19.994Z,10.48
2018-12-27T13:11:19.969Z,10.60
2018-12-27T13:12:19.920Z,10.67
2018-12-27T13:13:19.921Z,10.78
2018-12-27T13:14:19.858Z,10.69
2018-12-27T13:15:19.828Z,10.60
2018-12-27T13:16:19.790Z,10.63
2018-12-27T13:17:19.769Z,10.67